• Join FlightAware (Why Join?)
  • Login
  • US Flag 
01:09AM EDT


 

Airport Tracker/Info


-or-


 

Live Flight TrackerFlight Track Log ✈ FLG4262 ✈ 29-Sep-2013 ✈ KDTW - KBGM

Flight Track Log - Related Links

Times and Time Zones

All times are in EDT time to prevent confusion due to time zone crossing. See the FLG4262 flight status page for this flight to view local times or setup timezone preferences in your user account.

Time Position Orientation Groundspeed Altitude Reporting Facility
EDT Latitude Longitude Course Direction KTS MPH feet Rate Location/Type
03:46PM 42.1947 -83.3514 193° South 150 173 1,300  Level Cleveland Center
03:46PM 42.1883 -83.3533 193° South 146 168 1,800 1,980 Climbing Cleveland Center
03:48PM 42.1283 -83.3419 172° South 202 232 4,000 1,620 Climbing Cleveland Center
03:48PM 42.1222 -83.3400 167° South 194 223 4,100 1,740 Climbing Cleveland Center
03:49PM 42.0586 -83.3239 169° South 278 320 5,800 2,280 Climbing Cleveland Center
03:49PM 42.0456 -83.3081 138° Southeast 257 296 6,500 2,700 Climbing Cleveland Center
03:50PM 42.0364 -83.2308 99° East 299 344 8,500 2,580 Climbing Cleveland Center
03:50PM 42.0458 -83.2017 66° East 288 331 9,200 1,860 Climbing Cleveland Center
03:51PM 42.0886 -83.1036 60° Northeast 306 352 11,100 1,380 Climbing Cleveland Center
03:52PM 42.1342 -82.9922 61° Northeast 352 405 12,100 1,260 Climbing Cleveland Center
03:53PM 42.1883 -82.8742 58° Northeast 374 430 13,800 1,620 Climbing Cleveland Center
03:54PM 42.2392 -82.7528 60° Northeast 375 432 15,500 1,740 Climbing Cleveland Center
03:55PM 42.3019 -82.6069 60° Northeast 376 433 17,400 1,440 Climbing Cleveland Center
03:56PM 42.3544 -82.4825 60° Northeast 380 437 18,500 900 Climbing Cleveland Center
03:57PM 42.3619 -82.3333 86° East 401 461 19,300 720 Climbing Cleveland Center
03:58PM 42.3561 -82.1775 93° East 413 475 20,100 780 Climbing Cleveland Center
03:59PM 42.3489 -82.0092 93° East 423 487 21,000 780 Climbing Cleveland Center
04:00PM 42.3419 -81.8464 93° East 428 493 21,800 720 Climbing Cleveland Center
04:01PM 42.3342 -81.6814 94° East 434 499 22,600 840 Climbing Cleveland Center
04:02PM 42.3253 -81.4889 94° East 436 502 23,600 720 Climbing Cleveland Center
04:03PM 42.3178 -81.3217 93° East 439 505 24,100 480 Climbing Cleveland Center
04:04PM 42.3081 -81.1528 94° East 445 512 24,600 420 Climbing Cleveland Center
04:05PM 42.2994 -80.9831 94° East 447 514 25,000 180 Climbing Cleveland Center
04:06PM 42.2908 -80.8108 94° East 453 521 25,000 -300 Level Cleveland Center
04:07PM 42.2811 -80.6369 94° East 458 527 24,500 -720 Descending Cleveland Center
04:08PM 42.2711 -80.4522 94° East 479 551 23,600 -720 Descending Cleveland Center
04:10PM 42.2608 -80.2764 94° East 470 541 23,100 -300 Descending Cleveland Center
04:11PM 42.2503 -80.0789 94° East 453 521 23,000 -60 Descending Cleveland Center
04:12PM 42.2489 -79.9069 91° East 446 513 23,000  Level Cleveland Center
04:13PM 42.2494 -79.7372 90° East 452 520 23,000  Level Cleveland Center
04:14PM 42.2500 -79.5650 90° East 459 528 23,000  Level Cleveland Center
04:15PM 42.2497 -79.3933 90° East 461 531 23,000  Level Cleveland Center
04:16PM 42.2503 -79.2192 90° East 464 534 23,000  Level Cleveland Center
04:17PM 42.2506 -79.0100 90° East 467 537 23,000  Level Cleveland Center
04:18PM 42.2508 -78.8469 90° East 464 534 23,000  Level Cleveland Center
04:19PM 42.2494 -78.6739 91° East 463 533 23,000 -60 Level Cleveland Center
04:20PM 42.2497 -78.5028 90° East 460 529 22,900 -660 Descending Cleveland Center
04:21PM 42.2475 -78.2994 91° East 456 525 21,700 -1,080 Descending Cleveland Center
04:22PM 42.2475 -78.1353 90° East 445 512 20,700 -1,020 Descending Cleveland Center
04:23PM 42.2456 -77.9725 91° East 440 506 19,700 -1,020 Descending Cleveland Center
04:24PM 42.2442 -77.8111 91° East 435 501 18,700 -1,020 Descending Cleveland Center
04:25PM 42.2422 -77.6511 91° East 432 497 17,700 -900 Descending Cleveland Center
04:26PM 42.2397 -77.4614 91° East 428 493 16,900 -420 Descending Cleveland Center
04:27PM 42.2369 -77.3039 91° East 426 490 16,900  Level Cleveland Center
04:28PM 42.2342 -77.1442 91° East 428 493 16,900 -540 Level Cleveland Center
04:29PM 42.2311 -76.9869 91° East 423 487 15,900 -1,380 Descending Cleveland Center
04:30PM 42.2300 -76.8319 91° East 419 482 14,100 -2,160 Descending Cleveland Center
04:31PM 42.2242 -76.6517 92° East 403 464 11,400 -2,100 Descending Cleveland Center
04:32PM 42.2222 -76.5183 91° East 362 417 9,800 -1,380 Descending Cleveland Center
04:33PM 42.2206 -76.4075 91° East 302 348 8,600 -1,500 Descending Cleveland Center
04:34PM 42.2147 -76.3089 95° East 296 341 6,800 -1,920 Descending New York Center
04:35PM 42.2297 -76.2122 78° East 268 308 4,800 -1,800 Descending New York Center
04:36PM 42.2564 -76.1247 68° East 255 293 3,200 -900 Descending New York Center
04:37PM 42.2764 -76.0508 70° East 230 265 3,100 -480 Descending New York Center
04:38PM 42.2450 -76.0089 135° Southeast 148 170 2,300 -480 Descending New York Center
04:39PM 42.2308 -75.9519 109° East 148 170 2,200 -120 Descending New York Center